createdAt,value
2022-11-24T00:04:16.967Z,100177.38
2022-11-24T00:09:12.192Z,100198.56
2022-11-24T00:14:07.841Z,100163.59
2022-11-24T00:19:02.495Z,100191.59
2022-11-24T00:23:56.041Z,100145.13
2022-11-24T00:28:52.535Z,100048.13
2022-11-24T00:33:49.128Z,100203.78
2022-11-24T00:38:42.870Z,100191.44
2022-11-24T00:43:36.247Z,100174.84
2022-11-24T00:48:29.676Z,100154.81
2022-11-24T00:53:24.286Z,100193.56
2022-11-24T00:58:17.525Z,100187.19
2022-11-24T01:03:10.790Z,100169.06
2022-11-24T01:08:04.010Z,100194.16
2022-11-24T01:12:59.080Z,100204.72
2022-11-24T01:17:52.425Z,100203.84
2022-11-24T01:22:45.590Z,100124.34
2022-11-24T01:27:41.423Z,100162.03
2022-11-24T01:32:37.445Z,100056.06
2022-11-24T01:37:30.773Z,100205.38
2022-11-24T01:42:24.101Z,100142.00
2022-11-24T01:47:35.098Z,100086.75
2022-11-24T01:52:35.839Z,100177.06
2022-11-24T01:57:35.269Z,100191.75
2022-11-24T02:02:30.966Z,100179.91
2022-11-24T02:07:25.910Z,100182.94
2022-11-24T02:12:20.461Z,100151.31
2022-11-24T02:17:13.731Z,100202.03
2022-11-24T02:22:13.496Z,100179.88
2022-11-24T02:27:08.431Z,100209.56
2022-11-24T02:32:05.443Z,100155.63
2022-11-24T02:36:58.620Z,100211.47
2022-11-24T02:41:55.077Z,100219.50
2022-11-24T02:46:49.681Z,100222.09
2022-11-24T02:51:42.948Z,100183.91
2022-11-24T02:56:36.184Z,100113.16
2022-11-24T03:01:29.451Z,100156.31
2022-11-24T03:06:24.175Z,100205.28
2022-11-24T03:11:17.543Z,100151.00
2022-11-24T03:16:11.694Z,100188.56
2022-11-24T03:21:08.109Z,100109.22
2022-11-24T03:26:10.356Z,100180.69
2022-11-24T03:31:03.871Z,100098.63
2022-11-24T03:35:57.104Z,100130.44
2022-11-24T03:40:50.458Z,100221.72
2022-11-24T03:45:55.341Z,100220.06
2022-11-24T03:50:56.341Z,100223.50
2022-11-24T03:55:49.595Z,100199.78
2022-11-24T04:00:43.041Z,100231.25
2022-11-24T04:05:37.744Z,100224.59
2022-11-24T04:10:31.165Z,100219.97
2022-11-24T04:15:24.446Z,100262.03
2022-11-24T04:20:18.688Z,100241.34
2022-11-24T04:25:13.599Z,100268.25
2022-11-24T04:30:08.704Z,100188.34
2022-11-24T04:35:03.079Z,100159.19
2022-11-24T04:39:56.554Z,100272.38
2022-11-24T04:44:51.212Z,100281.25
2022-11-24T04:49:44.448Z,100190.28
2022-11-24T04:54:38.318Z,100264.69
2022-11-24T04:59:31.700Z,100241.28
2022-11-24T05:04:26.361Z,100291.47
2022-11-24T05:09:19.638Z,100284.84
2022-11-24T05:14:12.929Z,100312.72
2022-11-24T05:19:06.248Z,100178.50
2022-11-24T05:24:01.077Z,100161.59
2022-11-24T05:28:54.502Z,100255.06
2022-11-24T05:33:47.813Z,100330.22
2022-11-24T05:38:44.168Z,100327.94
2022-11-24T05:43:38.798Z,100332.50
2022-11-24T05:48:32.103Z,100335.28
2022-11-24T05:53:26.468Z,100357.25
2022-11-24T05:58:20.063Z,100333.31
2022-11-24T06:03:15.032Z,100352.44
2022-11-24T06:08:08.302Z,100366.50
2022-11-24T06:13:06.320Z,100233.34
2022-11-24T06:17:59.694Z,100363.50
2022-11-24T06:22:54.283Z,100389.78
2022-11-24T06:27:51.883Z,100207.19
2022-11-24T06:32:49.689Z,100371.59
2022-11-24T06:37:43.214Z,100400.78
2022-11-24T06:42:38.329Z,100398.59
2022-11-24T06:47:31.488Z,100375.41
2022-11-24T06:52:24.665Z,100414.28
2022-11-24T06:57:18.074Z,100375.28
2022-11-24T07:02:15.145Z,100407.50
2022-11-24T07:07:08.369Z,100439.31
2022-11-24T07:12:04.936Z,100397.56
2022-11-24T07:16:58.191Z,100455.59
2022-11-24T07:21:52.854Z,100459.97
2022-11-24T07:26:46.378Z,100437.56
2022-11-24T07:31:39.605Z,100407.13
2022-11-24T07:36:32.919Z,100384.50
2022-11-24T07:41:27.515Z,100485.28
2022-11-24T07:46:21.757Z,100487.97
2022-11-24T07:51:16.266Z,100445.69
2022-11-24T07:56:10.914Z,100489.22
2022-11-24T08:01:13.003Z,100497.75
2022-11-24T08:11:19.717Z,100500.16
2022-11-24T08:16:16.155Z,100383.88
2022-11-24T08:21:14.683Z,100507.28
2022-11-24T08:26:10.799Z,100514.16
2022-11-24T08:31:05.717Z,100504.31
2022-11-24T08:36:04.102Z,100424.66
2022-11-24T08:41:01.515Z,100510.66
2022-11-24T08:45:54.827Z,100470.75
2022-11-24T08:50:48.082Z,100529.00
2022-11-24T08:55:42.670Z,100520.34
2022-11-24T09:00:35.806Z,100527.66
2022-11-24T09:05:51.342Z,100535.22
2022-11-24T09:10:46.896Z,100534.50
2022-11-24T09:15:40.300Z,100514.91
2022-11-24T09:20:33.503Z,100543.34
2022-11-24T09:25:26.802Z,100541.59
2022-11-24T09:30:23.268Z,100526.38
2022-11-24T09:35:16.730Z,100500.53
2022-11-24T09:40:13.772Z,100521.03
2022-11-24T09:45:26.290Z,100539.47
2022-11-24T09:50:34.490Z,100543.00
2022-11-24T09:55:36.034Z,100513.81
2022-11-24T10:00:30.342Z,100506.44
2022-11-24T10:05:33.095Z,100518.91
2022-11-24T10:10:36.115Z,100480.59
2022-11-24T10:15:43.882Z,100459.66
2022-11-24T10:20:52.330Z,100482.69
2022-11-24T10:25:52.836Z,100512.22
2022-11-24T10:30:46.087Z,100534.94
2022-11-24T10:35:46.043Z,100534.75
2022-11-24T10:40:57.864Z,100503.44
2022-11-24T10:45:51.871Z,100487.56
2022-11-24T10:50:46.524Z,100528.09
2022-11-24T10:55:59.155Z,100534.66
2022-11-24T11:00:52.382Z,100494.69
2022-11-24T11:05:50.355Z,100528.94
2022-11-24T11:10:44.836Z,100524.38
2022-11-24T11:15:38.680Z,100522.41
2022-11-24T11:20:34.311Z,100492.84
2022-11-24T11:25:33.304Z,100503.41
2022-11-24T11:35:42.336Z,100444.16
2022-11-24T11:40:37.908Z,100497.81
2022-11-24T11:45:36.640Z,100523.00
2022-11-24T11:51:14.991Z,100535.63
2022-11-24T11:56:10.046Z,100495.81
2022-11-24T12:01:13.339Z,100512.47
2022-11-24T12:06:21.912Z,100451.50
2022-11-24T12:11:22.719Z,100527.13
2022-11-24T12:16:30.934Z,100571.50
2022-11-24T12:21:30.911Z,100409.94
2022-11-24T12:26:31.488Z,100558.06
2022-11-24T12:31:35.430Z,100579.41
2022-11-24T12:36:42.254Z,100535.06
2022-11-24T12:41:53.273Z,100583.16
2022-11-24T12:46:54.896Z,100537.72
2022-11-24T12:51:56.055Z,100508.75
2022-11-24T12:56:59.912Z,100550.31
2022-11-24T13:02:00.662Z,100524.09
2022-11-24T13:07:00.855Z,100539.09
2022-11-24T13:12:09.038Z,100530.75
2022-11-24T13:22:25.817Z,100561.72
2022-11-24T13:27:44.401Z,100562.22
2022-11-24T13:32:47.534Z,100564.22
2022-11-24T13:37:51.733Z,100551.91
2022-11-24T13:43:18.590Z,100516.88
2022-11-24T13:48:56.821Z,100506.34
2022-11-24T13:53:54.737Z,100545.28
2022-11-24T13:58:50.950Z,100585.81
2022-11-24T14:04:34.019Z,100546.16
2022-11-24T14:09:35.379Z,100467.56
2022-11-24T14:14:29.207Z,100552.56
2022-11-24T14:19:22.360Z,100553.13
2022-11-24T14:24:24.562Z,100554.75
2022-11-24T14:29:23.140Z,100498.44
2022-11-24T14:34:21.268Z,100519.38
2022-11-24T14:39:18.528Z,100600.16
2022-11-24T14:44:21.464Z,100555.69
2022-11-24T14:49:21.557Z,100563.38
2022-11-24T14:54:19.479Z,100533.63
2022-11-24T14:59:23.617Z,100608.63
2022-11-24T15:09:39.746Z,100582.22
2022-11-24T15:14:45.513Z,100541.16
2022-11-24T15:19:41.653Z,100419.56
2022-11-24T15:24:35.769Z,100566.06
2022-11-24T15:29:29.580Z,100515.50
2022-11-24T15:34:24.624Z,100602.66
2022-11-24T15:39:18.690Z,100634.94
2022-11-24T15:44:12.832Z,100432.69
2022-11-24T15:49:07.286Z,100616.53
2022-11-24T15:54:02.848Z,100625.81
2022-11-24T15:58:56.410Z,100455.22
2022-11-24T16:03:50.168Z,100457.06
2022-11-24T16:08:47.130Z,100516.63
2022-11-24T16:13:48.406Z,100623.31
2022-11-24T16:18:46.074Z,100524.88
2022-11-24T16:23:39.904Z,100626.75
2022-11-24T16:28:34.395Z,100505.91
2022-11-24T16:33:30.170Z,100474.19
2022-11-24T16:38:24.114Z,100568.75
2022-11-24T16:43:17.860Z,100379.97
2022-11-24T16:48:11.905Z,100545.19
2022-11-24T16:53:09.647Z,100577.72
2022-11-24T16:58:05.540Z,100563.91
2022-11-24T17:03:03.628Z,100654.22
2022-11-24T17:07:57.496Z,100512.09
2022-11-24T17:12:53.398Z,100467.41
2022-11-24T17:18:16.120Z,100630.09
2022-11-24T17:23:00.656Z,100473.19
2022-11-24T17:28:01.801Z,100452.94
2022-11-24T17:32:58.584Z,100676.66
2022-11-24T17:38:02.174Z,100661.47
2022-11-24T17:42:58.596Z,100613.13
2022-11-24T17:47:54.227Z,100685.97
2022-11-24T17:52:51.209Z,100664.59
2022-11-24T17:58:01.490Z,100618.25
2022-11-24T18:02:58.041Z,100413.25
2022-11-24T18:08:22.402Z,100684.09
2022-11-24T18:13:34.285Z,100608.00
2022-11-24T18:18:37.883Z,100450.69
2022-11-24T18:23:36.898Z,100560.06
2022-11-24T18:28:31.119Z,100684.78
2022-11-24T18:33:33.491Z,100551.69
2022-11-24T18:38:28.261Z,100643.00
2022-11-24T18:43:24.554Z,100570.81
2022-11-24T18:48:18.134Z,100552.88
2022-11-24T18:53:13.107Z,100641.03
2022-11-24T18:58:06.727Z,100501.69
2022-11-24T19:03:03.651Z,100693.00
2022-11-24T19:07:57.594Z,100702.31
2022-11-24T19:12:52.567Z,100693.34
2022-11-24T19:17:47.538Z,100594.16
2022-11-24T19:22:41.199Z,100699.00
2022-11-24T19:27:38.261Z,100696.75
2022-11-24T19:32:34.848Z,100566.16
2022-11-24T19:37:33.002Z,100694.28
2022-11-24T19:42:26.994Z,100518.22
2022-11-24T19:47:21.229Z,100685.41
2022-11-24T19:52:19.288Z,100671.47
2022-11-24T19:57:15.526Z,100624.06
2022-11-24T20:02:09.755Z,100570.91
2022-11-24T20:07:12.933Z,100498.47
2022-11-24T20:12:18.190Z,100517.09
2022-11-24T20:17:14.613Z,100495.16
2022-11-24T20:22:09.840Z,100708.66
2022-11-24T20:27:04.667Z,100463.81
2022-11-24T20:32:03.121Z,100621.25
2022-11-24T20:37:00.801Z,100504.28
2022-11-24T20:41:56.821Z,100585.69
2022-11-24T20:46:51.481Z,100486.31
2022-11-24T20:51:55.365Z,100438.59
2022-11-24T20:56:50.211Z,100627.34
2022-11-24T21:01:50.455Z,100499.44
2022-11-24T21:06:45.711Z,100479.78
2022-11-24T21:11:41.353Z,100514.84
2022-11-24T21:16:37.861Z,100606.56
2022-11-24T21:21:35.622Z,100722.03
2022-11-24T21:26:32.084Z,100518.34
2022-11-24T21:31:27.853Z,100726.13
2022-11-24T21:36:25.323Z,100503.84
2022-11-24T21:41:26.817Z,100482.03
2022-11-24T21:46:20.566Z,100616.56
2022-11-24T21:51:22.657Z,100562.09
2022-11-24T21:56:20.625Z,100730.06
2022-11-24T22:01:14.665Z,100656.13
2022-11-24T22:06:09.073Z,100561.63
2022-11-24T22:11:06.211Z,100622.28
2022-11-24T22:16:04.579Z,100509.47
2022-11-24T22:21:00.880Z,100690.59
2022-11-24T22:25:54.180Z,100753.19
2022-11-24T22:30:48.906Z,100644.22
2022-11-24T22:35:42.300Z,100583.38
2022-11-24T22:40:35.680Z,100746.66
2022-11-24T22:45:36.983Z,100601.50
2022-11-24T22:50:32.081Z,100683.50
2022-11-24T22:55:25.869Z,100744.25
2022-11-24T23:00:19.996Z,100629.75
2022-11-24T23:05:18.032Z,100755.13
2022-11-24T23:10:15.144Z,100750.56
2022-11-24T23:15:09.597Z,100684.53
2022-11-24T23:20:05.647Z,100637.13
2022-11-24T23:24:59.080Z,100758.06
2022-11-24T23:29:53.889Z,100717.44
2022-11-24T23:34:47.327Z,100740.34
2022-11-24T23:39:40.805Z,100557.28
2022-11-24T23:44:34.397Z,100706.97
2022-11-24T23:49:31.290Z,100574.38
2022-11-24T23:54:24.592Z,100728.72
2022-11-24T23:59:19.136Z,100570.53
